sensor_id;sensor_type;location;lat;lon;timestamp;P1;durP1;ratioP1;P2;durP2;ratioP2
48945;SDS011;34999;50.940;3.998;2023-04-25T00:00:46;23.43;;;8.47;;
48945;SDS011;34999;50.940;3.998;2023-04-25T00:03:14;22.13;;;8.67;;
48945;SDS011;34999;50.940;3.998;2023-04-25T00:05:45;15.70;;;8.00;;
48945;SDS011;34999;50.940;3.998;2023-04-25T00:08:16;27.57;;;9.37;;
48945;SDS011;34999;50.940;3.998;2023-04-25T00:10:44;22.57;;;7.73;;
48945;SDS011;34999;50.940;3.998;2023-04-25T00:13:12;20.80;;;7.73;;
48945;SDS011;34999;50.940;3.998;2023-04-25T00:15:40;18.77;;;7.80;;
48945;SDS011;34999;50.940;3.998;2023-04-25T00:18:09;17.77;;;7.93;;
48945;SDS011;34999;50.940;3.998;2023-04-25T00:20:37;20.67;;;8.20;;
48945;SDS011;34999;50.940;3.998;2023-04-25T00:23:05;17.60;;;7.40;;
48945;SDS011;34999;50.940;3.998;2023-04-25T00:25:35;22.03;;;6.90;;
48945;SDS011;34999;50.940;3.998;2023-04-25T00:28:03;20.27;;;7.13;;
48945;SDS011;34999;50.940;3.998;2023-04-25T00:30:31;20.30;;;7.07;;
48945;SDS011;34999;50.940;3.998;2023-04-25T00:32:59;14.70;;;6.37;;
48945;SDS011;34999;50.940;3.998;2023-04-25T00:35:28;19.13;;;6.87;;
48945;SDS011;34999;50.940;3.998;2023-04-25T00:37:56;26.03;;;7.43;;
48945;SDS011;34999;50.940;3.998;2023-04-25T00:40:24;16.93;;;6.97;;
48945;SDS011;34999;50.940;3.998;2023-04-25T00:42:54;16.70;;;6.97;;
48945;SDS011;34999;50.940;3.998;2023-04-25T00:45:22;17.50;;;6.27;;
48945;SDS011;34999;50.940;3.998;2023-04-25T00:47:56;21.33;;;6.70;;
48945;SDS011;34999;50.940;3.998;2023-04-25T00:50:25;18.17;;;6.50;;
48945;SDS011;34999;50.940;3.998;2023-04-25T00:52:53;18.20;;;6.77;;
48945;SDS011;34999;50.940;3.998;2023-04-25T00:55:21;24.97;;;6.93;;
48945;SDS011;34999;50.940;3.998;2023-04-25T00:57:50;15.77;;;6.10;;
48945;SDS011;34999;50.940;3.998;2023-04-25T01:00:20;19.07;;;6.53;;
48945;SDS011;34999;50.940;3.998;2023-04-25T01:05:38;21.33;;;5.90;;
48945;SDS011;34999;50.940;3.998;2023-04-25T01:08:08;22.67;;;6.30;;
48945;SDS011;34999;50.940;3.998;2023-04-25T01:10:36;28.23;;;6.43;;
48945;SDS011;34999;50.940;3.998;2023-04-25T01:13:04;21.67;;;6.63;;
48945;SDS011;34999;50.940;3.998;2023-04-25T01:15:34;17.90;;;5.90;;
48945;SDS011;34999;50.940;3.998;2023-04-25T01:18:03;19.27;;;6.30;;
48945;SDS011;34999;50.940;3.998;2023-04-25T01:20:33;18.17;;;6.37;;
48945;SDS011;34999;50.940;3.998;2023-04-25T01:23:03;22.80;;;6.30;;
48945;SDS011;34999;50.940;3.998;2023-04-25T01:25:31;17.03;;;6.43;;
48945;SDS011;34999;50.940;3.998;2023-04-25T01:28:00;28.13;;;6.53;;
48945;SDS011;34999;50.940;3.998;2023-04-25T01:30:28;22.40;;;6.17;;
48945;SDS011;34999;50.940;3.998;2023-04-25T01:32:56;24.70;;;6.07;;
48945;SDS011;34999;50.940;3.998;2023-04-25T01:35:26;18.67;;;6.13;;
48945;SDS011;34999;50.940;3.998;2023-04-25T01:37:54;18.37;;;5.67;;
48945;SDS011;34999;50.940;3.998;2023-04-25T01:40:24;19.07;;;6.13;;
48945;SDS011;34999;50.940;3.998;2023-04-25T01:42:52;25.20;;;5.60;;
48945;SDS011;34999;50.940;3.998;2023-04-25T01:45:21;17.87;;;6.03;;
48945;SDS011;34999;50.940;3.998;2023-04-25T01:47:49;29.37;;;6.37;;
48945;SDS011;34999;50.940;3.998;2023-04-25T01:50:18;29.03;;;7.07;;
48945;SDS011;34999;50.940;3.998;2023-04-25T01:52:46;21.93;;;5.80;;
48945;SDS011;34999;50.940;3.998;2023-04-25T01:55:15;22.60;;;6.27;;
48945;SDS011;34999;50.940;3.998;2023-04-25T01:57:45;17.33;;;5.90;;
48945;SDS011;34999;50.940;3.998;2023-04-25T02:00:13;18.60;;;5.57;;
48945;SDS011;34999;50.940;3.998;2023-04-25T02:02:41;21.00;;;5.90;;
48945;SDS011;34999;50.940;3.998;2023-04-25T02:05:10;16.50;;;5.40;;
48945;SDS011;34999;50.940;3.998;2023-04-25T02:07:38;20.17;;;6.00;;
48945;SDS011;34999;50.940;3.998;2023-04-25T02:10:07;20.10;;;5.70;;
48945;SDS011;34999;50.940;3.998;2023-04-25T02:12:36;16.47;;;5.30;;
48945;SDS011;34999;50.940;3.998;2023-04-25T02:15:06;17.70;;;5.23;;
48945;SDS011;34999;50.940;3.998;2023-04-25T02:17:34;22.33;;;5.77;;
48945;SDS011;34999;50.940;3.998;2023-04-25T02:20:03;18.60;;;5.77;;
48945;SDS011;34999;50.940;3.998;2023-04-25T02:22:32;10.63;;;4.70;;
48945;SDS011;34999;50.940;3.998;2023-04-25T02:25:01;21.23;;;6.10;;
48945;SDS011;34999;50.940;3.998;2023-04-25T02:27:31;15.53;;;5.23;;
48945;SDS011;34999;50.940;3.998;2023-04-25T02:29:59;18.97;;;5.27;;
48945;SDS011;34999;50.940;3.998;2023-04-25T02:32:29;22.63;;;5.43;;
48945;SDS011;34999;50.940;3.998;2023-04-25T02:34:57;20.10;;;5.17;;
48945;SDS011;34999;50.940;3.998;2023-04-25T02:37:30;21.17;;;5.80;;
48945;SDS011;34999;50.940;3.998;2023-04-25T02:39:58;22.37;;;5.30;;
48945;SDS011;34999;50.940;3.998;2023-04-25T02:42:26;21.13;;;5.70;;
48945;SDS011;34999;50.940;3.998;2023-04-25T02:44:55;23.50;;;6.47;;
48945;SDS011;34999;50.940;3.998;2023-04-25T02:47:23;25.07;;;6.00;;
48945;SDS011;34999;50.940;3.998;2023-04-25T02:49:53;16.03;;;5.37;;
48945;SDS011;34999;50.940;3.998;2023-04-25T02:52:21;19.33;;;5.90;;
48945;SDS011;34999;50.940;3.998;2023-04-25T02:54:49;16.43;;;5.40;;
48945;SDS011;34999;50.940;3.998;2023-04-25T02:57:18;15.07;;;5.37;;
48945;SDS011;34999;50.940;3.998;2023-04-25T02:59:46;14.07;;;4.77;;
48945;SDS011;34999;50.940;3.998;2023-04-25T03:02:14;16.37;;;5.10;;
48945;SDS011;34999;50.940;3.998;2023-04-25T03:04:42;14.53;;;4.87;;
48945;SDS011;34999;50.940;3.998;2023-04-25T03:07:12;18.83;;;5.63;;
48945;SDS011;34999;50.940;3.998;2023-04-25T03:09:40;22.70;;;5.17;;
48945;SDS011;34999;50.940;3.998;2023-04-25T03:12:09;19.30;;;5.77;;
48945;SDS011;34999;50.940;3.998;2023-04-25T03:14:37;13.30;;;4.80;;
48945;SDS011;34999;50.940;3.998;2023-04-25T03:17:05;26.27;;;5.87;;
48945;SDS011;34999;50.940;3.998;2023-04-25T03:19:33;18.47;;;5.17;;
48945;SDS011;34999;50.940;3.998;2023-04-25T03:22:02;20.47;;;6.00;;
48945;SDS011;34999;50.940;3.998;2023-04-25T03:24:31;11.50;;;4.37;;
48945;SDS011;34999;50.940;3.998;2023-04-25T03:26:59;16.33;;;5.50;;
48945;SDS011;34999;50.940;3.998;2023-04-25T03:29:28;15.40;;;5.40;;
48945;SDS011;34999;50.940;3.998;2023-04-25T03:31:56;21.03;;;5.57;;
48945;SDS011;34999;50.940;3.998;2023-04-25T03:34:24;20.20;;;5.87;;
48945;SDS011;34999;50.940;3.998;2023-04-25T03:36:53;17.37;;;5.33;;
48945;SDS011;34999;50.940;3.998;2023-04-25T03:39:21;22.03;;;5.60;;
48945;SDS011;34999;50.940;3.998;2023-04-25T03:41:51;23.67;;;5.87;;
48945;SDS011;34999;50.940;3.998;2023-04-25T03:44:19;16.47;;;5.93;;
48945;SDS011;34999;50.940;3.998;2023-04-25T03:46:47;20.00;;;6.70;;
48945;SDS011;34999;50.940;3.998;2023-04-25T03:49:16;23.83;;;5.87;;
48945;SDS011;34999;50.940;3.998;2023-04-25T03:51:44;19.33;;;5.13;;
48945;SDS011;34999;50.940;3.998;2023-04-25T03:54:13;21.63;;;6.00;;
48945;SDS011;34999;50.940;3.998;2023-04-25T03:56:41;19.63;;;6.03;;
48945;SDS011;34999;50.940;3.998;2023-04-25T03:59:11;23.80;;;5.43;;
48945;SDS011;34999;50.940;3.998;2023-04-25T04:01:39;15.70;;;5.77;;
48945;SDS011;34999;50.940;3.998;2023-04-25T04:04:07;20.37;;;5.60;;
48945;SDS011;34999;50.940;3.998;2023-04-25T04:06:36;13.17;;;5.40;;
48945;SDS011;34999;50.940;3.998;2023-04-25T04:09:04;15.30;;;5.33;;
48945;SDS011;34999;50.940;3.998;2023-04-25T04:11:36;19.50;;;5.70;;
48945;SDS011;34999;50.940;3.998;2023-04-25T04:14:04;18.70;;;5.60;;
48945;SDS011;34999;50.940;3.998;2023-04-25T04:16:35;18.17;;;5.13;;
48945;SDS011;34999;50.940;3.998;2023-04-25T04:19:03;21.53;;;5.47;;
48945;SDS011;34999;50.940;3.998;2023-04-25T04:21:31;16.43;;;5.13;;
48945;SDS011;34999;50.940;3.998;2023-04-25T04:23:59;14.47;;;5.70;;
48945;SDS011;34999;50.940;3.998;2023-04-25T04:26:28;12.40;;;5.10;;
48945;SDS011;34999;50.940;3.998;2023-04-25T04:28:58;16.77;;;4.90;;
48945;SDS011;34999;50.940;3.998;2023-04-25T04:31:26;18.77;;;5.40;;
48945;SDS011;34999;50.940;3.998;2023-04-25T04:33:56;20.60;;;5.10;;
48945;SDS011;34999;50.940;3.998;2023-04-25T04:36:24;20.77;;;5.13;;
48945;SDS011;34999;50.940;3.998;2023-04-25T04:38:52;10.37;;;5.00;;
48945;SDS011;34999;50.940;3.998;2023-04-25T04:41:22;15.63;;;5.33;;
48945;SDS011;34999;50.940;3.998;2023-04-25T04:43:51;14.43;;;5.03;;
48945;SDS011;34999;50.940;3.998;2023-04-25T04:46:19;14.37;;;4.90;;
48945;SDS011;34999;50.940;3.998;2023-04-25T04:48:48;14.70;;;5.43;;
48945;SDS011;34999;50.940;3.998;2023-04-25T04:51:17;14.67;;;5.13;;
48945;SDS011;34999;50.940;3.998;2023-04-25T04:53:47;13.07;;;5.30;;
48945;SDS011;34999;50.940;3.998;2023-04-25T04:56:15;12.97;;;5.67;;
48945;SDS011;34999;50.940;3.998;2023-04-25T04:58:43;15.97;;;4.93;;
48945;SDS011;34999;50.940;3.998;2023-04-25T05:01:18;16.03;;;5.53;;
48945;SDS011;34999;50.940;3.998;2023-04-25T05:03:47;11.03;;;4.93;;
48945;SDS011;34999;50.940;3.998;2023-04-25T05:06:15;10.53;;;5.20;;
48945;SDS011;34999;50.940;3.998;2023-04-25T05:08:46;9.90;;;4.90;;
48945;SDS011;34999;50.940;3.998;2023-04-25T05:11:15;18.73;;;5.13;;
48945;SDS011;34999;50.940;3.998;2023-04-25T05:13:43;19.50;;;5.07;;
48945;SDS011;34999;50.940;3.998;2023-04-25T05:16:12;11.70;;;4.70;;
48945;SDS011;34999;50.940;3.998;2023-04-25T05:18:40;17.57;;;5.43;;
48945;SDS011;34999;50.940;3.998;2023-04-25T05:21:09;14.23;;;5.10;;
48945;SDS011;34999;50.940;3.998;2023-04-25T05:23:38;13.07;;;5.07;;
48945;SDS011;34999;50.940;3.998;2023-04-25T05:26:07;14.07;;;5.47;;
48945;SDS011;34999;50.940;3.998;2023-04-25T05:28:40;11.63;;;4.40;;
48945;SDS011;34999;50.940;3.998;2023-04-25T05:31:09;13.73;;;4.83;;
48945;SDS011;34999;50.940;3.998;2023-04-25T05:33:37;17.40;;;5.07;;
48945;SDS011;34999;50.940;3.998;2023-04-25T05:36:06;10.07;;;4.90;;
48945;SDS011;34999;50.940;3.998;2023-04-25T05:38:35;23.43;;;5.13;;
48945;SDS011;34999;50.940;3.998;2023-04-25T05:41:04;15.60;;;4.80;;
48945;SDS011;34999;50.940;3.998;2023-04-25T05:43:33;15.43;;;4.97;;
48945;SDS011;34999;50.940;3.998;2023-04-25T05:46:01;13.67;;;4.70;;
48945;SDS011;34999;50.940;3.998;2023-04-25T05:48:30;15.83;;;5.10;;
48945;SDS011;34999;50.940;3.998;2023-04-25T05:50:58;16.43;;;4.63;;
48945;SDS011;34999;50.940;3.998;2023-04-25T05:53:26;14.67;;;4.90;;
48945;SDS011;34999;50.940;3.998;2023-04-25T05:55:54;13.87;;;4.90;;
48945;SDS011;34999;50.940;3.998;2023-04-25T05:58:24;15.80;;;5.07;;
48945;SDS011;34999;50.940;3.998;2023-04-25T06:00:52;11.97;;;4.90;;
48945;SDS011;34999;50.940;3.998;2023-04-25T06:03:20;6.20;;;4.40;;
48945;SDS011;34999;50.940;3.998;2023-04-25T06:05:49;11.27;;;4.27;;
48945;SDS011;34999;50.940;3.998;2023-04-25T06:08:17;14.67;;;5.17;;
48945;SDS011;34999;50.940;3.998;2023-04-25T06:10:45;13.27;;;4.63;;
48945;SDS011;34999;50.940;3.998;2023-04-25T06:13:14;17.27;;;4.43;;
48945;SDS011;34999;50.940;3.998;2023-04-25T06:15:43;12.23;;;4.73;;
48945;SDS011;34999;50.940;3.998;2023-04-25T06:18:11;14.53;;;4.87;;
48945;SDS011;34999;50.940;3.998;2023-04-25T06:20:40;13.87;;;4.97;;
48945;SDS011;34999;50.940;3.998;2023-04-25T06:23:08;24.80;;;5.37;;
48945;SDS011;34999;50.940;3.998;2023-04-25T06:25:36;18.10;;;5.10;;
48945;SDS011;34999;50.940;3.998;2023-04-25T06:28:04;17.50;;;5.00;;
48945;SDS011;34999;50.940;3.998;2023-04-25T06:30:32;12.90;;;4.60;;
48945;SDS011;34999;50.940;3.998;2023-04-25T06:33:02;13.53;;;4.43;;
48945;SDS011;34999;50.940;3.998;2023-04-25T06:35:30;14.90;;;4.47;;
48945;SDS011;34999;50.940;3.998;2023-04-25T06:37:59;16.43;;;5.37;;
48945;SDS011;34999;50.940;3.998;2023-04-25T06:40:27;10.10;;;4.00;;
48945;SDS011;34999;50.940;3.998;2023-04-25T06:42:55;11.47;;;3.97;;
48945;SDS011;34999;50.940;3.998;2023-04-25T06:45:23;9.60;;;3.80;;
48945;SDS011;34999;50.940;3.998;2023-04-25T06:47:51;14.20;;;3.90;;
48945;SDS011;34999;50.940;3.998;2023-04-25T06:50:21;14.77;;;4.30;;
48945;SDS011;34999;50.940;3.998;2023-04-25T06:52:49;20.13;;;4.43;;
48945;SDS011;34999;50.940;3.998;2023-04-25T06:55:17;16.43;;;3.80;;
48945;SDS011;34999;50.940;3.998;2023-04-25T06:57:46;10.13;;;3.63;;
48945;SDS011;34999;50.940;3.998;2023-04-25T07:00:14;9.73;;;3.77;;
48945;SDS011;34999;50.940;3.998;2023-04-25T07:02:43;14.63;;;3.70;;
48945;SDS011;34999;50.940;3.998;2023-04-25T07:05:11;10.50;;;4.10;;
48945;SDS011;34999;50.940;3.998;2023-04-25T07:07:41;8.87;;;3.40;;
48945;SDS011;34999;50.940;3.998;2023-04-25T07:10:09;13.67;;;3.83;;
48945;SDS011;34999;50.940;3.998;2023-04-25T07:12:37;7.10;;;3.17;;
48945;SDS011;34999;50.940;3.998;2023-04-25T07:15:06;14.40;;;3.87;;
48945;SDS011;34999;50.940;3.998;2023-04-25T07:17:36;9.80;;;3.40;;
48945;SDS011;34999;50.940;3.998;2023-04-25T07:20:05;12.53;;;3.60;;
48945;SDS011;34999;50.940;3.998;2023-04-25T07:22:35;9.57;;;3.20;;
48945;SDS011;34999;50.940;3.998;2023-04-25T07:25:05;10.37;;;3.30;;
48945;SDS011;34999;50.940;3.998;2023-04-25T07:27:34;13.83;;;3.33;;
48945;SDS011;34999;50.940;3.998;2023-04-25T07:30:03;13.57;;;4.07;;
48945;SDS011;34999;50.940;3.998;2023-04-25T07:32:32;10.87;;;3.30;;
48945;SDS011;34999;50.940;3.998;2023-04-25T07:35:01;10.97;;;3.17;;
48945;SDS011;34999;50.940;3.998;2023-04-25T07:37:29;8.33;;;2.80;;
48945;SDS011;34999;50.940;3.998;2023-04-25T07:39:58;7.47;;;2.73;;
48945;SDS011;34999;50.940;3.998;2023-04-25T07:42:27;13.77;;;3.43;;
48945;SDS011;34999;50.940;3.998;2023-04-25T07:44:55;6.37;;;2.83;;
48945;SDS011;34999;50.940;3.998;2023-04-25T07:47:24;10.50;;;3.03;;
48945;SDS011;34999;50.940;3.998;2023-04-25T07:49:52;14.13;;;3.07;;
48945;SDS011;34999;50.940;3.998;2023-04-25T07:52:20;7.60;;;2.73;;
48945;SDS011;34999;50.940;3.998;2023-04-25T07:54:49;7.00;;;2.23;;
48945;SDS011;34999;50.940;3.998;2023-04-25T07:57:17;4.03;;;2.13;;
48945;SDS011;34999;50.940;3.998;2023-04-25T07:59:47;10.83;;;2.70;;
48945;SDS011;34999;50.940;3.998;2023-04-25T08:02:15;7.20;;;2.63;;
48945;SDS011;34999;50.940;3.998;2023-04-25T08:04:44;8.03;;;2.70;;
48945;SDS011;34999;50.940;3.998;2023-04-25T08:07:16;6.07;;;2.23;;
48945;SDS011;34999;50.940;3.998;2023-04-25T08:09:44;9.47;;;2.40;;
48945;SDS011;34999;50.940;3.998;2023-04-25T08:12:15;7.67;;;2.20;;
48945;SDS011;34999;50.940;3.998;2023-04-25T08:14:43;5.90;;;2.70;;
48945;SDS011;34999;50.940;3.998;2023-04-25T08:17:13;7.73;;;2.67;;
48945;SDS011;34999;50.940;3.998;2023-04-25T08:19:41;6.97;;;2.43;;
48945;SDS011;34999;50.940;3.998;2023-04-25T08:22:09;5.73;;;2.30;;
48945;SDS011;34999;50.940;3.998;2023-04-25T08:24:39;7.37;;;2.33;;
48945;SDS011;34999;50.940;3.998;2023-04-25T08:27:07;9.53;;;2.47;;
48945;SDS011;34999;50.940;3.998;2023-04-25T08:29:36;7.50;;;2.47;;
48945;SDS011;34999;50.940;3.998;2023-04-25T08:32:04;8.27;;;2.50;;
48945;SDS011;34999;50.940;3.998;2023-04-25T08:34:34;5.57;;;2.50;;
48945;SDS011;34999;50.940;3.998;2023-04-25T08:37:03;9.43;;;2.57;;
48945;SDS011;34999;50.940;3.998;2023-04-25T08:39:32;4.60;;;1.93;;
48945;SDS011;34999;50.940;3.998;2023-04-25T08:42:00;5.17;;;2.27;;
48945;SDS011;34999;50.940;3.998;2023-04-25T08:44:31;4.40;;;2.10;;
48945;SDS011;34999;50.940;3.998;2023-04-25T08:47:01;18.27;;;3.37;;
48945;SDS011;34999;50.940;3.998;2023-04-25T08:49:31;10.37;;;3.00;;
48945;SDS011;34999;50.940;3.998;2023-04-25T08:52:02;7.77;;;2.60;;
48945;SDS011;34999;50.940;3.998;2023-04-25T08:54:32;7.37;;;2.23;;
48945;SDS011;34999;50.940;3.998;2023-04-25T08:57:04;6.40;;;2.23;;
48945;SDS011;34999;50.940;3.998;2023-04-25T08:59:34;6.43;;;2.13;;
48945;SDS011;34999;50.940;3.998;2023-04-25T09:02:04;2.37;;;1.87;;
48945;SDS011;34999;50.940;3.998;2023-04-25T09:04:34;7.10;;;2.27;;
48945;SDS011;34999;50.940;3.998;2023-04-25T09:07:03;4.70;;;1.70;;
48945;SDS011;34999;50.940;3.998;2023-04-25T09:09:31;2.33;;;1.77;;
48945;SDS011;34999;50.940;3.998;2023-04-25T09:11:59;4.13;;;1.80;;
48945;SDS011;34999;50.940;3.998;2023-04-25T09:14:28;3.97;;;1.90;;
48945;SDS011;34999;50.940;3.998;2023-04-25T09:16:57;7.20;;;2.50;;
48945;SDS011;34999;50.940;3.998;2023-04-25T09:19:30;3.20;;;2.03;;
48945;SDS011;34999;50.940;3.998;2023-04-25T09:22:08;6.47;;;2.00;;
48945;SDS011;34999;50.940;3.998;2023-04-25T09:24:37;7.20;;;2.07;;
48945;SDS011;34999;50.940;3.998;2023-04-25T09:27:07;5.00;;;1.90;;
48945;SDS011;34999;50.940;3.998;2023-04-25T09:29:37;7.30;;;2.27;;
48945;SDS011;34999;50.940;3.998;2023-04-25T09:32:11;5.87;;;1.83;;
48945;SDS011;34999;50.940;3.998;2023-04-25T09:34:44;5.33;;;1.87;;
48945;SDS011;34999;50.940;3.998;2023-04-25T09:37:20;6.10;;;2.13;;
48945;SDS011;34999;50.940;3.998;2023-04-25T09:39:51;6.07;;;2.17;;
48945;SDS011;34999;50.940;3.998;2023-04-25T09:42:22;3.83;;;2.10;;
48945;SDS011;34999;50.940;3.998;2023-04-25T09:44:53;2.90;;;1.80;;
48945;SDS011;34999;50.940;3.998;2023-04-25T09:47:23;3.53;;;1.73;;
48945;SDS011;34999;50.940;3.998;2023-04-25T09:49:53;4.50;;;1.40;;
48945;SDS011;34999;50.940;3.998;2023-04-25T09:52:24;4.97;;;2.07;;
48945;SDS011;34999;50.940;3.998;2023-04-25T09:54:52;3.10;;;1.80;;
48945;SDS011;34999;50.940;3.998;2023-04-25T09:57:21;2.93;;;1.50;;
48945;SDS011;34999;50.940;3.998;2023-04-25T09:59:51;2.70;;;1.90;;
48945;SDS011;34999;50.940;3.998;2023-04-25T10:02:21;8.20;;;2.60;;
48945;SDS011;34999;50.940;3.998;2023-04-25T10:04:52;8.73;;;2.20;;
48945;SDS011;34999;50.940;3.998;2023-04-25T10:07:26;3.97;;;2.40;;
48945;SDS011;34999;50.940;3.998;2023-04-25T10:09:58;5.93;;;2.00;;
48945;SDS011;34999;50.940;3.998;2023-04-25T10:12:29;5.13;;;2.20;;
48945;SDS011;34999;50.940;3.998;2023-04-25T10:14:57;7.10;;;2.37;;
48945;SDS011;34999;50.940;3.998;2023-04-25T10:17:26;6.40;;;2.23;;
48945;SDS011;34999;50.940;3.998;2023-04-25T10:19:55;9.47;;;2.57;;
48945;SDS011;34999;50.940;3.998;2023-04-25T10:22:29;10.03;;;2.40;;
48945;SDS011;34999;50.940;3.998;2023-04-25T10:25:00;6.90;;;2.37;;
48945;SDS011;34999;50.940;3.998;2023-04-25T10:27:30;4.83;;;2.03;;
48945;SDS011;34999;50.940;3.998;2023-04-25T10:30:02;6.00;;;2.23;;
48945;SDS011;34999;50.940;3.998;2023-04-25T10:32:32;2.90;;;2.00;;
48945;SDS011;34999;50.940;3.998;2023-04-25T10:35:10;2.20;;;2.00;;
48945;SDS011;34999;50.940;3.998;2023-04-25T10:40:30;5.57;;;2.10;;
48945;SDS011;34999;50.940;3.998;2023-04-25T10:46:00;4.93;;;2.13;;
48945;SDS011;34999;50.940;3.998;2023-04-25T10:48:29;3.10;;;1.67;;
48945;SDS011;34999;50.940;3.998;2023-04-25T10:51:07;5.10;;;2.00;;
48945;SDS011;34999;50.940;3.998;2023-04-25T10:53:37;3.90;;;2.00;;
48945;SDS011;34999;50.940;3.998;2023-04-25T10:56:12;4.27;;;1.90;;
48945;SDS011;34999;50.940;3.998;2023-04-25T10:58:45;4.53;;;1.90;;
48945;SDS011;34999;50.940;3.998;2023-04-25T11:01:19;4.93;;;1.90;;
48945;SDS011;34999;50.940;3.998;2023-04-25T11:03:48;5.17;;;2.40;;
48945;SDS011;34999;50.940;3.998;2023-04-25T11:06:27;4.03;;;1.80;;
48945;SDS011;34999;50.940;3.998;2023-04-25T11:09:08;6.63;;;2.23;;
48945;SDS011;34999;50.940;3.998;2023-04-25T11:11:39;3.33;;;1.97;;
48945;SDS011;34999;50.940;3.998;2023-04-25T11:14:08;3.03;;;1.90;;
48945;SDS011;34999;50.940;3.998;2023-04-25T11:16:36;3.33;;;1.77;;
48945;SDS011;34999;50.940;3.998;2023-04-25T11:19:04;4.07;;;1.70;;
48945;SDS011;34999;50.940;3.998;2023-04-25T11:21:32;3.63;;;1.60;;
48945;SDS011;34999;50.940;3.998;2023-04-25T11:24:01;1.50;;;1.37;;
48945;SDS011;34999;50.940;3.998;2023-04-25T11:26:31;2.47;;;1.40;;
48945;SDS011;34999;50.940;3.998;2023-04-25T11:28:59;2.23;;;1.77;;
48945;SDS011;34999;50.940;3.998;2023-04-25T11:31:28;4.47;;;2.10;;
48945;SDS011;34999;50.940;3.998;2023-04-25T11:33:57;3.03;;;1.70;;
48945;SDS011;34999;50.940;3.998;2023-04-25T11:36:26;1.83;;;1.50;;
48945;SDS011;34999;50.940;3.998;2023-04-25T11:38:54;2.43;;;1.53;;
48945;SDS011;34999;50.940;3.998;2023-04-25T11:41:23;5.60;;;1.97;;
48945;SDS011;34999;50.940;3.998;2023-04-25T11:43:54;3.00;;;1.60;;
48945;SDS011;34999;50.940;3.998;2023-04-25T11:46:23;2.77;;;1.60;;
48945;SDS011;34999;50.940;3.998;2023-04-25T11:48:51;2.60;;;1.43;;
48945;SDS011;34999;50.940;3.998;2023-04-25T11:51:25;3.40;;;1.50;;
48945;SDS011;34999;50.940;3.998;2023-04-25T11:53:53;3.00;;;1.60;;
48945;SDS011;34999;50.940;3.998;2023-04-25T11:56:21;4.00;;;1.67;;
48945;SDS011;34999;50.940;3.998;2023-04-25T11:58:55;3.90;;;1.90;;
48945;SDS011;34999;50.940;3.998;2023-04-25T12:01:27;1.93;;;1.63;;
48945;SDS011;34999;50.940;3.998;2023-04-25T12:04:09;3.30;;;1.70;;
48945;SDS011;34999;50.940;3.998;2023-04-25T12:06:40;3.53;;;1.53;;
48945;SDS011;34999;50.940;3.998;2023-04-25T12:09:10;2.13;;;1.97;;
48945;SDS011;34999;50.940;3.998;2023-04-25T12:11:43;3.80;;;2.03;;
48945;SDS011;34999;50.940;3.998;2023-04-25T12:17:01;5.13;;;2.10;;
48945;SDS011;34999;50.940;3.998;2023-04-25T12:19:33;3.80;;;1.97;;
48945;SDS011;34999;50.940;3.998;2023-04-25T12:22:03;2.03;;;1.60;;
48945;SDS011;34999;50.940;3.998;2023-04-25T12:24:46;4.37;;;2.27;;
48945;SDS011;34999;50.940;3.998;2023-04-25T12:27:14;3.60;;;1.97;;
48945;SDS011;34999;50.940;3.998;2023-04-25T12:29:52;2.30;;;2.10;;
48945;SDS011;34999;50.940;3.998;2023-04-25T12:32:21;5.40;;;2.13;;
48945;SDS011;34999;50.940;3.998;2023-04-25T12:34:49;3.37;;;1.87;;
48945;SDS011;34999;50.940;3.998;2023-04-25T12:37:17;3.10;;;1.87;;
48945;SDS011;34999;50.940;3.998;2023-04-25T12:39:46;4.77;;;1.97;;
48945;SDS011;34999;50.940;3.998;2023-04-25T12:42:14;5.20;;;2.03;;
48945;SDS011;34999;50.940;3.998;2023-04-25T12:44:42;6.43;;;1.90;;
48945;SDS011;34999;50.940;3.998;2023-04-25T12:47:12;2.00;;;1.60;;
48945;SDS011;34999;50.940;3.998;2023-04-25T12:49:41;1.97;;;1.87;;
48945;SDS011;34999;50.940;3.998;2023-04-25T12:52:09;1.70;;;1.60;;
48945;SDS011;34999;50.940;3.998;2023-04-25T12:54:38;4.47;;;2.00;;
48945;SDS011;34999;50.940;3.998;2023-04-25T12:57:06;3.00;;;1.97;;
48945;SDS011;34999;50.940;3.998;2023-04-25T12:59:34;4.10;;;1.90;;
48945;SDS011;34999;50.940;3.998;2023-04-25T13:02:03;6.67;;;2.03;;
48945;SDS011;34999;50.940;3.998;2023-04-25T13:04:32;6.37;;;2.20;;
48945;SDS011;34999;50.940;3.998;2023-04-25T13:07:01;8.03;;;2.10;;
48945;SDS011;34999;50.940;3.998;2023-04-25T13:09:30;4.17;;;2.10;;
48945;SDS011;34999;50.940;3.998;2023-04-25T13:11:58;4.00;;;2.07;;
48945;SDS011;34999;50.940;3.998;2023-04-25T13:14:26;6.13;;;2.30;;
48945;SDS011;34999;50.940;3.998;2023-04-25T13:16:55;9.10;;;2.40;;
48945;SDS011;34999;50.940;3.998;2023-04-25T13:19:24;4.67;;;1.87;;
48945;SDS011;34999;50.940;3.998;2023-04-25T13:21:53;2.30;;;1.70;;
48945;SDS011;34999;50.940;3.998;2023-04-25T13:24:22;4.93;;;1.90;;
48945;SDS011;34999;50.940;3.998;2023-04-25T13:26:50;3.87;;;2.13;;
48945;SDS011;34999;50.940;3.998;2023-04-25T13:29:19;3.63;;;1.90;;
48945;SDS011;34999;50.940;3.998;2023-04-25T13:31:48;4.63;;;2.03;;
48945;SDS011;34999;50.940;3.998;2023-04-25T13:34:19;1.90;;;1.60;;
48945;SDS011;34999;50.940;3.998;2023-04-25T13:36:47;1.97;;;1.70;;
48945;SDS011;34999;50.940;3.998;2023-04-25T13:39:20;5.23;;;1.87;;
48945;SDS011;34999;50.940;3.998;2023-04-25T13:41:48;2.93;;;2.07;;
48945;SDS011;34999;50.940;3.998;2023-04-25T13:44:16;9.13;;;2.33;;
48945;SDS011;34999;50.940;3.998;2023-04-25T13:46:45;6.40;;;2.10;;
48945;SDS011;34999;50.940;3.998;2023-04-25T13:49:13;3.70;;;1.87;;
48945;SDS011;34999;50.940;3.998;2023-04-25T13:51:42;2.90;;;2.10;;
48945;SDS011;34999;50.940;3.998;2023-04-25T13:54:10;4.17;;;1.73;;
48945;SDS011;34999;50.940;3.998;2023-04-25T13:56:40;5.83;;;1.93;;
48945;SDS011;34999;50.940;3.998;2023-04-25T13:59:09;4.07;;;1.80;;
48945;SDS011;34999;50.940;3.998;2023-04-25T14:01:37;3.93;;;1.90;;
48945;SDS011;34999;50.940;3.998;2023-04-25T14:04:06;1.90;;;1.80;;
48945;SDS011;34999;50.940;3.998;2023-04-25T14:06:35;3.13;;;1.80;;
48945;SDS011;34999;50.940;3.998;2023-04-25T14:09:04;2.33;;;1.50;;
48945;SDS011;34999;50.940;3.998;2023-04-25T14:11:33;2.57;;;2.10;;
48945;SDS011;34999;50.940;3.998;2023-04-25T14:14:03;6.40;;;1.90;;
48945;SDS011;34999;50.940;3.998;2023-04-25T14:16:33;3.33;;;1.93;;
48945;SDS011;34999;50.940;3.998;2023-04-25T14:19:02;4.80;;;2.07;;
48945;SDS011;34999;50.940;3.998;2023-04-25T14:21:30;4.67;;;1.90;;
48945;SDS011;34999;50.940;3.998;2023-04-25T14:23:59;3.57;;;1.70;;
48945;SDS011;34999;50.940;3.998;2023-04-25T14:26:27;3.90;;;2.10;;
48945;SDS011;34999;50.940;3.998;2023-04-25T14:28:56;3.47;;;1.90;;
48945;SDS011;34999;50.940;3.998;2023-04-25T14:31:26;4.87;;;1.80;;
48945;SDS011;34999;50.940;3.998;2023-04-25T14:33:55;2.30;;;1.77;;
48945;SDS011;34999;50.940;3.998;2023-04-25T14:36:25;5.97;;;2.30;;
48945;SDS011;34999;50.940;3.998;2023-04-25T14:38:54;2.53;;;1.70;;
48945;SDS011;34999;50.940;3.998;2023-04-25T14:41:22;4.90;;;1.70;;
48945;SDS011;34999;50.940;3.998;2023-04-25T14:43:51;5.67;;;1.90;;
48945;SDS011;34999;50.940;3.998;2023-04-25T14:46:20;5.27;;;1.83;;
48945;SDS011;34999;50.940;3.998;2023-04-25T14:48:51;5.10;;;2.60;;
48945;SDS011;34999;50.940;3.998;2023-04-25T14:51:19;7.07;;;2.83;;
48945;SDS011;34999;50.940;3.998;2023-04-25T14:53:48;3.03;;;1.70;;
48945;SDS011;34999;50.940;3.998;2023-04-25T14:56:17;3.37;;;2.00;;
48945;SDS011;34999;50.940;3.998;2023-04-25T14:58:45;7.73;;;2.30;;
48945;SDS011;34999;50.940;3.998;2023-04-25T15:01:13;2.47;;;1.90;;
48945;SDS011;34999;50.940;3.998;2023-04-25T15:03:42;4.23;;;2.13;;